LHA2305 EDDP-LFMN
Flight info
| Callsign | LHA2305 |
|---|---|
| Flight time | 1h 49m |
| Altitude | 32000 |
| Route | NEVKO Y225 OKKOC Z94 VAGAB Y231 AMOSA N869 NATOR DCT TRA DCT RIPUS DCT GERSA DCT SOSON DCT ODINA DCT ENOBA Z185 BORDI |
| Aircraft | A319/M-SDE1E2FGIRWYZ/S |
Departure
| Time | 2026-05-08 05:10 |
|---|---|
| Airport | Leipzig/Halle Airport (EDDP) |
Arrival
| Time | 2026-05-08 07:00 |
|---|---|
| Airport | Nice-Côte d'Azur Airport (LFMN) |
| Time | Latitude | Longitude | Altitude | Speed | Heading |
|---|---|---|---|---|---|
| 2026-05-08 04:57 | 51.42732 | 12.23994 | 469 ft | 0 kts | 266° |
| 2026-05-08 05:00 | 51.42732 | 12.24001 | 469 ft | 3 kts | 266° |
| 2026-05-08 05:00 | 51.42734 | 12.24042 | 469 ft | 3 kts | 266° |
| 2026-05-08 05:00 | 51.42735 | 12.24085 | 469 ft | 3 kts | 276° |
| 2026-05-08 05:01 | 51.42722 | 12.24116 | 469 ft | 3 kts | 332° |
| 2026-05-08 05:01 | 51.42711 | 12.24122 | 469 ft | 0 kts | 353° |
| 2026-05-08 05:03 | 51.42714 | 12.24121 | 469 ft | 1 kts | 354° |
| 2026-05-08 05:04 | 51.42730 | 12.24118 | 469 ft | 4 kts | 354° |
| 2026-05-08 05:04 | 51.42775 | 12.24112 | 469 ft | 8 kts | 355° |
| 2026-05-08 05:04 | 51.42847 | 12.24126 | 469 ft | 12 kts | 6° |
| 2026-05-08 05:04 | 51.42931 | 12.24165 | 469 ft | 14 kts | 71° |
| 2026-05-08 05:05 | 51.42942 | 12.24346 | 469 ft | 17 kts | 85° |
| 2026-05-08 05:05 | 51.42952 | 12.24556 | 469 ft | 20 kts | 85° |
| 2026-05-08 05:05 | 51.42965 | 12.24789 | 469 ft | 22 kts | 84° |
| 2026-05-08 05:05 | 51.42979 | 12.25043 | 469 ft | 23 kts | 86° |
| 2026-05-08 05:06 | 51.42992 | 12.25318 | 469 ft | 25 kts | 84° |
| 2026-05-08 05:06 | 51.43007 | 12.25602 | 469 ft | 25 kts | 86° |
| 2026-05-08 05:06 | 51.43018 | 12.25883 | 469 ft | 25 kts | 86° |
| 2026-05-08 05:06 | 51.43029 | 12.26158 | 469 ft | 24 kts | 85° |
| 2026-05-08 05:07 | 51.43041 | 12.26401 | 469 ft | 18 kts | 86° |
| 2026-05-08 05:07 | 51.43051 | 12.26593 | 469 ft | 14 kts | 85° |
| 2026-05-08 05:07 | 51.43059 | 12.26712 | 469 ft | 10 kts | 70° |
| 2026-05-08 05:07 | 51.43125 | 12.26753 | 469 ft | 11 kts | 354° |
| 2026-05-08 05:08 | 51.43212 | 12.26739 | 469 ft | 12 kts | 354° |
| 2026-05-08 05:08 | 51.43261 | 12.26725 | 469 ft | 4 kts | 342° |
| 2026-05-08 05:08 | 51.43283 | 12.26712 | 469 ft | 3 kts | 338° |
| 2026-05-08 05:08 | 51.43311 | 12.26691 | 469 ft | 5 kts | 332° |
| 2026-05-08 05:09 | 51.43344 | 12.26651 | 469 ft | 6 kts | 310° |
| 2026-05-08 05:09 | 51.43357 | 12.26571 | 469 ft | 7 kts | 265° |
| 2026-05-08 05:09 | 51.43356 | 12.26564 | 469 ft | 0 kts | 265° |
| 2026-05-08 05:09 | 51.43342 | 12.26257 | 469 ft | 71 kts | 265° |
| 2026-05-08 05:10 | 51.43283 | 12.24991 | 470 ft | 151 kts | 264° |
| 2026-05-08 05:10 | 51.43119 | 12.21319 | 1997 ft | 164 kts | 266° |
| 2026-05-08 05:10 | 51.43034 | 12.19497 | 2763 ft | 171 kts | 265° |
| 2026-05-08 05:11 | 51.42935 | 12.17523 | 3380 ft | 188 kts | 265° |
| 2026-05-08 05:11 | 51.42826 | 12.15348 | 4012 ft | 206 kts | 265° |
| 2026-05-08 05:11 | 51.42708 | 12.12990 | 4610 ft | 226 kts | 264° |
| 2026-05-08 05:11 | 51.42574 | 12.10316 | 4903 ft | 258 kts | 264° |
| 2026-05-08 05:12 | 51.42422 | 12.07322 | 4989 ft | 274 kts | 264° |
| 2026-05-08 05:12 | 51.42272 | 12.04300 | 4991 ft | 275 kts | 264° |
| 2026-05-08 05:12 | 51.42121 | 12.01240 | 4992 ft | 276 kts | 264° |
| 2026-05-08 05:12 | 51.41960 | 11.98177 | 4992 ft | 276 kts | 262° |
| 2026-05-08 05:13 | 51.41354 | 11.95267 | 4981 ft | 273 kts | 234° |
| 2026-05-08 05:13 | 51.40016 | 11.93195 | 4993 ft | 268 kts | 210° |
| 2026-05-08 05:13 | 51.38410 | 11.91692 | 4995 ft | 267 kts | 206° |
| 2026-05-08 05:13 | 51.36787 | 11.90270 | 4994 ft | 267 kts | 206° |
| 2026-05-08 05:14 | 51.35156 | 11.88827 | 4994 ft | 268 kts | 206° |
| 2026-05-08 05:14 | 51.33540 | 11.87367 | 4994 ft | 268 kts | 207° |
| 2026-05-08 05:14 | 51.31917 | 11.85883 | 5030 ft | 272 kts | 207° |
| 2026-05-08 05:14 | 51.30263 | 11.84360 | 5647 ft | 281 kts | 207° |
| 2026-05-08 05:15 | 51.28604 | 11.82823 | 6974 ft | 275 kts | 206° |
| 2026-05-08 05:15 | 51.26990 | 11.81330 | 8208 ft | 271 kts | 206° |
| 2026-05-08 05:15 | 51.25421 | 11.79772 | 9330 ft | 271 kts | 211° |
| 2026-05-08 05:15 | 51.23922 | 11.78012 | 10437 ft | 272 kts | 215° |
| 2026-05-08 05:16 | 51.22435 | 11.76161 | 11255 ft | 281 kts | 216° |
| 2026-05-08 05:16 | 51.20837 | 11.74164 | 11791 ft | 300 kts | 217° |
| 2026-05-08 05:16 | 51.19156 | 11.72060 | 12418 ft | 314 kts | 217° |
| 2026-05-08 05:16 | 51.17459 | 11.69934 | 13327 ft | 316 kts | 217° |
| 2026-05-08 05:17 | 51.15731 | 11.67774 | 14284 ft | 317 kts | 218° |
| 2026-05-08 05:17 | 51.14005 | 11.65621 | 15182 ft | 319 kts | 218° |
| 2026-05-08 05:17 | 51.12260 | 11.63449 | 16045 ft | 321 kts | 218° |
| 2026-05-08 05:17 | 51.10528 | 11.61297 | 16866 ft | 323 kts | 219° |
| 2026-05-08 05:18 | 51.08756 | 11.59098 | 17670 ft | 325 kts | 219° |
| 2026-05-08 05:18 | 51.06985 | 11.56902 | 18436 ft | 327 kts | 219° |
| 2026-05-08 05:18 | 51.05192 | 11.54679 | 19172 ft | 329 kts | 220° |
| 2026-05-08 05:18 | 51.03392 | 11.52452 | 19877 ft | 332 kts | 220° |
| 2026-05-08 05:19 | 51.01570 | 11.50203 | 20541 ft | 335 kts | 221° |
| 2026-05-08 05:19 | 50.99724 | 11.47923 | 21135 ft | 340 kts | 222° |
| 2026-05-08 05:19 | 50.97850 | 11.45610 | 21715 ft | 345 kts | 223° |
| 2026-05-08 05:19 | 50.95967 | 11.43286 | 22272 ft | 349 kts | 223° |
| 2026-05-08 05:20 | 50.94041 | 11.40912 | 22808 ft | 354 kts | 224° |
| 2026-05-08 05:20 | 50.92091 | 11.38512 | 23318 ft | 359 kts | 224° |
| 2026-05-08 05:20 | 50.90105 | 11.36069 | 23806 ft | 365 kts | 225° |
| 2026-05-08 05:20 | 50.88134 | 11.33511 | 24269 ft | 366 kts | 231° |
| 2026-05-08 05:21 | 50.86590 | 11.30392 | 24722 ft | 361 kts | 244° |
| 2026-05-08 05:21 | 50.85606 | 11.26764 | 25239 ft | 358 kts | 257° |
| 2026-05-08 05:21 | 50.85162 | 11.22920 | 25782 ft | 357 kts | 264° |
| 2026-05-08 05:21 | 50.84614 | 11.19062 | 26294 ft | 365 kts | 254° |
| 2026-05-08 05:22 | 50.83419 | 11.15514 | 26774 ft | 377 kts | 240° |
| 2026-05-08 05:22 | 50.81558 | 11.12433 | 27238 ft | 394 kts | 226° |
| 2026-05-08 05:22 | 50.79325 | 11.09939 | 27699 ft | 401 kts | 223° |
| 2026-05-08 05:22 | 50.76984 | 11.07463 | 28119 ft | 406 kts | 223° |
| 2026-05-08 05:23 | 50.74647 | 11.05013 | 28517 ft | 409 kts | 223° |
| 2026-05-08 05:23 | 50.72269 | 11.02523 | 28925 ft | 413 kts | 223° |
| 2026-05-08 05:23 | 50.69914 | 11.00001 | 29455 ft | 411 kts | 224° |
| 2026-05-08 05:23 | 50.67576 | 10.97429 | 30051 ft | 408 kts | 225° |
| 2026-05-08 05:24 | 50.65266 | 10.94878 | 30585 ft | 408 kts | 225° |
| 2026-05-08 05:24 | 50.62947 | 10.92320 | 31026 ft | 409 kts | 225° |
| 2026-05-08 05:24 | 50.60625 | 10.89792 | 31428 ft | 413 kts | 224° |
| 2026-05-08 05:24 | 50.58113 | 10.87454 | 31826 ft | 423 kts | 219° |
| 2026-05-08 05:25 | 50.55440 | 10.85472 | 32000 ft | 433 kts | 213° |
| 2026-05-08 05:25 | 50.52543 | 10.83845 | 32003 ft | 449 kts | 207° |
| 2026-05-08 05:25 | 50.49484 | 10.82669 | 32004 ft | 460 kts | 201° |
| 2026-05-08 05:26 | 50.43035 | 10.81821 | 32006 ft | 475 kts | 190° |
| 2026-05-08 05:26 | 50.36881 | 10.81944 | 32005 ft | 477 kts | 189° |
| 2026-05-08 05:27 | 50.30250 | 10.82106 | 32005 ft | 476 kts | 189° |
| 2026-05-08 05:27 | 50.23650 | 10.82219 | 32007 ft | 476 kts | 189° |
| 2026-05-08 05:28 | 50.17075 | 10.82314 | 32016 ft | 476 kts | 190° |
| 2026-05-08 05:28 | 50.10465 | 10.82406 | 32043 ft | 476 kts | 190° |
| 2026-05-08 05:29 | 50.03851 | 10.82506 | 32074 ft | 476 kts | 189° |
| 2026-05-08 05:29 | 49.97346 | 10.82607 | 32094 ft | 475 kts | 189° |
| 2026-05-08 05:30 | 49.90784 | 10.82705 | 32102 ft | 475 kts | 190° |
| 2026-05-08 05:30 | 49.85585 | 10.82781 | 32104 ft | 475 kts | 190° |
| 2026-05-08 05:31 | 49.78983 | 10.82876 | 32105 ft | 475 kts | 189° |
| 2026-05-08 05:31 | 49.72403 | 10.82711 | 32105 ft | 471 kts | 193° |
| 2026-05-08 05:32 | 49.65879 | 10.82225 | 32106 ft | 470 kts | 193° |
| 2026-05-08 05:32 | 49.59383 | 10.81673 | 32103 ft | 465 kts | 197° |
| 2026-05-08 05:32 | 49.56226 | 10.80848 | 32104 ft | 454 kts | 204° |
| 2026-05-08 05:33 | 49.53237 | 10.79458 | 32105 ft | 442 kts | 212° |
| 2026-05-08 05:33 | 49.47909 | 10.75230 | 32108 ft | 422 kts | 225° |
| 2026-05-08 05:34 | 49.43542 | 10.69519 | 32112 ft | 408 kts | 235° |
| 2026-05-08 05:34 | 49.39628 | 10.63296 | 32113 ft | 406 kts | 236° |
| 2026-05-08 05:35 | 49.35737 | 10.56962 | 32113 ft | 406 kts | 236° |
| 2026-05-08 05:35 | 49.31781 | 10.50750 | 32114 ft | 408 kts | 235° |
| 2026-05-08 05:36 | 49.28725 | 10.46102 | 32114 ft | 408 kts | 235° |
| 2026-05-08 05:36 | 49.24032 | 10.38956 | 32114 ft | 408 kts | 235° |
| 2026-05-08 05:38 | 49.12289 | 10.20046 | 32112 ft | 401 kts | 240° |
| 2026-05-08 05:38 | 49.09014 | 10.13837 | 32109 ft | 403 kts | 240° |
| 2026-05-08 05:39 | 49.05474 | 10.07143 | 32107 ft | 407 kts | 240° |
| 2026-05-08 05:39 | 49.01884 | 10.00367 | 32105 ft | 413 kts | 240° |
| 2026-05-08 05:40 | 48.98266 | 9.93550 | 32105 ft | 418 kts | 240° |
| 2026-05-08 05:40 | 48.94582 | 9.86632 | 32106 ft | 422 kts | 239° |
| 2026-05-08 05:41 | 48.90874 | 9.79691 | 32107 ft | 423 kts | 239° |
| 2026-05-08 05:41 | 48.87177 | 9.72788 | 32106 ft | 423 kts | 239° |
| 2026-05-08 05:42 | 48.83461 | 9.65866 | 32106 ft | 423 kts | 239° |
| 2026-05-08 05:42 | 48.79723 | 9.58919 | 32107 ft | 423 kts | 239° |
| 2026-05-08 05:43 | 48.76015 | 9.52047 | 32103 ft | 423 kts | 239° |
| 2026-05-08 05:43 | 48.72286 | 9.45152 | 32095 ft | 424 kts | 239° |
| 2026-05-08 05:44 | 48.68545 | 9.38252 | 32087 ft | 424 kts | 239° |
| 2026-05-08 05:44 | 48.64850 | 9.31455 | 32083 ft | 425 kts | 239° |
| 2026-05-08 05:45 | 48.61194 | 9.24524 | 32079 ft | 421 kts | 242° |
| 2026-05-08 05:45 | 48.57803 | 9.17343 | 32079 ft | 421 kts | 243° |
| 2026-05-08 05:46 | 48.54406 | 9.10153 | 32079 ft | 420 kts | 243° |
| 2026-05-08 05:46 | 48.51043 | 9.03041 | 32080 ft | 418 kts | 242° |
| 2026-05-08 05:47 | 48.47663 | 8.95916 | 32080 ft | 415 kts | 242° |
| 2026-05-08 05:47 | 48.44316 | 8.88878 | 32080 ft | 413 kts | 241° |
| 2026-05-08 05:48 | 48.40990 | 8.81910 | 32079 ft | 412 kts | 241° |
| 2026-05-08 05:48 | 48.37655 | 8.74938 | 32079 ft | 412 kts | 241° |
| 2026-05-08 05:49 | 48.34301 | 8.67942 | 32079 ft | 412 kts | 241° |
| 2026-05-08 05:49 | 48.30967 | 8.61005 | 32079 ft | 412 kts | 241° |
| 2026-05-08 05:50 | 48.27607 | 8.54030 | 32078 ft | 412 kts | 241° |
| 2026-05-08 05:50 | 48.24259 | 8.47103 | 32073 ft | 412 kts | 241° |
| 2026-05-08 05:51 | 48.20182 | 8.40868 | 32060 ft | 429 kts | 225° |
| 2026-05-08 05:51 | 48.14869 | 8.36523 | 32039 ft | 449 kts | 209° |
| 2026-05-08 05:52 | 48.08608 | 8.34697 | 32026 ft | 470 kts | 189° |
| 2026-05-08 05:52 | 48.05322 | 8.34926 | 32025 ft | 481 kts | 180° |
| 2026-05-08 05:52 | 48.02037 | 8.35651 | 32030 ft | 484 kts | 178° |
| 2026-05-08 05:53 | 47.95421 | 8.37333 | 32044 ft | 484 kts | 177° |
| 2026-05-08 05:53 | 47.89242 | 8.38869 | 32057 ft | 483 kts | 178° |
| 2026-05-08 05:54 | 47.82584 | 8.40469 | 32068 ft | 483 kts | 178° |
| 2026-05-08 05:54 | 47.76016 | 8.42028 | 32074 ft | 483 kts | 178° |
| 2026-05-08 05:55 | 47.69416 | 8.43571 | 32076 ft | 481 kts | 179° |
| 2026-05-08 05:55 | 47.62756 | 8.44628 | 32077 ft | 479 kts | 182° |
| 2026-05-08 05:56 | 47.56180 | 8.45590 | 32077 ft | 479 kts | 182° |
| 2026-05-08 05:56 | 47.49462 | 8.46575 | 32077 ft | 479 kts | 182° |
| 2026-05-08 05:57 | 47.42857 | 8.47544 | 32077 ft | 479 kts | 181° |
| 2026-05-08 05:57 | 47.36227 | 8.48514 | 32077 ft | 479 kts | 181° |
| 2026-05-08 05:58 | 47.29642 | 8.49475 | 32077 ft | 479 kts | 182° |
| 2026-05-08 05:58 | 47.23044 | 8.50437 | 32077 ft | 479 kts | 181° |
| 2026-05-08 05:59 | 47.16434 | 8.51400 | 32077 ft | 479 kts | 181° |
| 2026-05-08 05:59 | 47.09783 | 8.52366 | 32077 ft | 479 kts | 181° |
| 2026-05-08 06:00 | 47.03198 | 8.53320 | 32077 ft | 479 kts | 181° |
| 2026-05-08 06:00 | 46.96574 | 8.54264 | 32077 ft | 479 kts | 180° |
| 2026-05-08 06:01 | 46.90015 | 8.55200 | 32078 ft | 478 kts | 179° |
| 2026-05-08 06:01 | 46.83330 | 8.56166 | 32077 ft | 477 kts | 178° |
| 2026-05-08 06:02 | 46.76738 | 8.57123 | 32077 ft | 477 kts | 178° |
| 2026-05-08 06:02 | 46.70166 | 8.58065 | 32077 ft | 477 kts | 179° |
| 2026-05-08 06:03 | 46.63612 | 8.58999 | 32077 ft | 477 kts | 179° |
| 2026-05-08 06:03 | 46.57008 | 8.59940 | 32077 ft | 477 kts | 179° |
| 2026-05-08 06:04 | 46.50459 | 8.60869 | 32077 ft | 477 kts | 179° |
| 2026-05-08 06:04 | 46.43851 | 8.61804 | 32077 ft | 477 kts | 179° |
| 2026-05-08 06:05 | 46.37257 | 8.62735 | 32077 ft | 477 kts | 179° |
| 2026-05-08 06:05 | 46.30666 | 8.63662 | 32077 ft | 477 kts | 179° |
| 2026-05-08 06:06 | 46.24085 | 8.64586 | 32077 ft | 477 kts | 179° |
| 2026-05-08 06:06 | 46.17619 | 8.65492 | 32077 ft | 477 kts | 179° |
| 2026-05-08 06:07 | 46.11057 | 8.65955 | 32077 ft | 472 kts | 186° |
| 2026-05-08 06:07 | 46.04538 | 8.65323 | 32077 ft | 467 kts | 193° |
| 2026-05-08 06:08 | 45.98159 | 8.64009 | 32078 ft | 466 kts | 194° |
| 2026-05-08 06:08 | 45.91960 | 8.62726 | 32077 ft | 467 kts | 193° |
| 2026-05-08 06:09 | 45.85534 | 8.61412 | 32075 ft | 467 kts | 193° |
| 2026-05-08 06:09 | 45.79132 | 8.60110 | 32070 ft | 467 kts | 193° |
| 2026-05-08 06:10 | 45.72716 | 8.58809 | 32062 ft | 467 kts | 193° |
| 2026-05-08 06:10 | 45.66302 | 8.57513 | 32057 ft | 467 kts | 193° |
| 2026-05-08 06:11 | 45.59929 | 8.56227 | 32054 ft | 467 kts | 193° |
| 2026-05-08 06:11 | 45.53475 | 8.54929 | 32053 ft | 467 kts | 193° |
| 2026-05-08 06:12 | 45.47102 | 8.53650 | 32053 ft | 467 kts | 193° |
| 2026-05-08 06:12 | 45.40657 | 8.52359 | 32053 ft | 467 kts | 193° |
| 2026-05-08 06:13 | 45.34259 | 8.51080 | 32052 ft | 467 kts | 193° |
| 2026-05-08 06:13 | 45.27864 | 8.49805 | 32061 ft | 467 kts | 193° |
| 2026-05-08 06:14 | 45.21443 | 8.48528 | 32070 ft | 467 kts | 193° |
| 2026-05-08 06:14 | 45.15021 | 8.47253 | 32074 ft | 467 kts | 193° |
| 2026-05-08 06:15 | 45.08581 | 8.45979 | 32076 ft | 467 kts | 193° |
| 2026-05-08 06:15 | 45.02172 | 8.44711 | 32077 ft | 469 kts | 193° |
| 2026-05-08 06:16 | 44.95735 | 8.43442 | 32076 ft | 471 kts | 193° |
| 2026-05-08 06:16 | 44.89229 | 8.42162 | 32072 ft | 472 kts | 193° |
| 2026-05-08 06:17 | 44.79518 | 8.40259 | 32043 ft | 472 kts | 193° |
| 2026-05-08 06:17 | 44.73467 | 8.39076 | 32021 ft | 472 kts | 193° |
| 2026-05-08 06:18 | 44.66956 | 8.37806 | 32008 ft | 472 kts | 193° |
| 2026-05-08 06:18 | 44.60472 | 8.36544 | 32004 ft | 473 kts | 193° |
| 2026-05-08 06:19 | 44.53961 | 8.35279 | 31848 ft | 471 kts | 193° |
| 2026-05-08 06:19 | 44.50746 | 8.34657 | 31320 ft | 465 kts | 193° |
| 2026-05-08 06:19 | 44.47578 | 8.34043 | 30648 ft | 463 kts | 192° |
| 2026-05-08 06:20 | 44.44407 | 8.33427 | 29908 ft | 462 kts | 192° |
| 2026-05-08 06:20 | 44.41250 | 8.32814 | 29141 ft | 462 kts | 192° |
| 2026-05-08 06:20 | 44.38050 | 8.32196 | 28334 ft | 462 kts | 192° |
| 2026-05-08 06:20 | 44.34888 | 8.31585 | 27506 ft | 461 kts | 192° |
| 2026-05-08 06:21 | 44.31832 | 8.30598 | 26823 ft | 448 kts | 206° |
| 2026-05-08 06:21 | 44.29221 | 8.28450 | 26233 ft | 430 kts | 224° |
| 2026-05-08 06:21 | 44.27286 | 8.25454 | 25674 ft | 415 kts | 238° |
| 2026-05-08 06:21 | 44.25659 | 8.22174 | 25119 ft | 408 kts | 240° |
| 2026-05-08 06:22 | 44.24101 | 8.18938 | 24571 ft | 402 kts | 240° |
| 2026-05-08 06:22 | 44.22534 | 8.15702 | 24022 ft | 397 kts | 240° |
| 2026-05-08 06:22 | 44.20996 | 8.12561 | 23485 ft | 393 kts | 239° |
| 2026-05-08 06:22 | 44.19472 | 8.09474 | 22953 ft | 389 kts | 239° |
| 2026-05-08 06:23 | 44.17932 | 8.06372 | 22419 ft | 385 kts | 239° |
| 2026-05-08 06:23 | 44.16427 | 8.03349 | 21896 ft | 381 kts | 239° |
| 2026-05-08 06:23 | 44.15029 | 8.00549 | 21411 ft | 378 kts | 239° |
| 2026-05-08 06:23 | 44.13543 | 7.97574 | 20894 ft | 375 kts | 239° |
| 2026-05-08 06:24 | 44.12051 | 7.94591 | 20374 ft | 373 kts | 239° |
| 2026-05-08 06:24 | 44.10586 | 7.91662 | 19863 ft | 370 kts | 239° |
| 2026-05-08 06:24 | 44.09126 | 7.88748 | 19350 ft | 368 kts | 238° |
| 2026-05-08 06:24 | 44.07677 | 7.85858 | 18843 ft | 366 kts | 238° |
| 2026-05-08 06:25 | 44.06223 | 7.82965 | 18333 ft | 364 kts | 238° |
| 2026-05-08 06:25 | 44.04798 | 7.80131 | 17832 ft | 362 kts | 238° |
| 2026-05-08 06:25 | 44.03359 | 7.77273 | 17328 ft | 360 kts | 238° |
| 2026-05-08 06:25 | 44.01917 | 7.74408 | 17027 ft | 359 kts | 238° |
| 2026-05-08 06:26 | 44.00490 | 7.71572 | 17002 ft | 360 kts | 238° |
| 2026-05-08 06:26 | 43.99062 | 7.68735 | 17000 ft | 360 kts | 238° |
| 2026-05-08 06:26 | 43.97626 | 7.65888 | 16999 ft | 361 kts | 238° |
| 2026-05-08 06:26 | 43.96196 | 7.63054 | 16998 ft | 361 kts | 238° |
| 2026-05-08 06:27 | 43.94761 | 7.60215 | 16997 ft | 361 kts | 238° |
| 2026-05-08 06:27 | 43.93322 | 7.57371 | 16997 ft | 361 kts | 238° |
| 2026-05-08 06:27 | 43.91869 | 7.54502 | 16996 ft | 361 kts | 238° |
| 2026-05-08 06:27 | 43.90428 | 7.51661 | 16996 ft | 361 kts | 238° |
| 2026-05-08 06:28 | 43.89001 | 7.48850 | 16995 ft | 361 kts | 238° |
| 2026-05-08 06:28 | 43.87541 | 7.45976 | 16995 ft | 361 kts | 237° |
| 2026-05-08 06:28 | 43.85836 | 7.43421 | 16983 ft | 367 kts | 220° |
| 2026-05-08 06:28 | 43.83530 | 7.41861 | 16988 ft | 374 kts | 197° |
| 2026-05-08 06:29 | 43.80953 | 7.41607 | 16990 ft | 380 kts | 175° |
| 2026-05-08 06:29 | 43.78459 | 7.42736 | 16992 ft | 384 kts | 152° |
| 2026-05-08 06:29 | 43.76382 | 7.44842 | 17002 ft | 385 kts | 141° |
| 2026-05-08 06:29 | 43.74345 | 7.47228 | 16999 ft | 385 kts | 140° |
| 2026-05-08 06:30 | 43.72305 | 7.49613 | 16997 ft | 385 kts | 141° |
| 2026-05-08 06:30 | 43.70240 | 7.51978 | 16996 ft | 385 kts | 140° |
| 2026-05-08 06:30 | 43.68399 | 7.54631 | 16992 ft | 385 kts | 127° |
| 2026-05-08 06:30 | 43.67059 | 7.57809 | 16993 ft | 384 kts | 112° |
| 2026-05-08 06:31 | 43.66107 | 7.61248 | 16741 ft | 383 kts | 108° |
| 2026-05-08 06:31 | 43.65250 | 7.64703 | 16292 ft | 379 kts | 108° |
| 2026-05-08 06:31 | 43.64407 | 7.68140 | 15841 ft | 376 kts | 108° |
| 2026-05-08 06:31 | 43.63563 | 7.71527 | 15392 ft | 372 kts | 108° |
| 2026-05-08 06:32 | 43.62714 | 7.74883 | 14942 ft | 369 kts | 108° |
| 2026-05-08 06:32 | 43.61862 | 7.78214 | 14491 ft | 366 kts | 109° |
| 2026-05-08 06:32 | 43.61072 | 7.81284 | 14071 ft | 363 kts | 109° |
| 2026-05-08 06:32 | 43.60231 | 7.84539 | 13622 ft | 360 kts | 109° |
| 2026-05-08 06:33 | 43.59396 | 7.87761 | 13174 ft | 357 kts | 109° |
| 2026-05-08 06:33 | 43.58566 | 7.90955 | 12725 ft | 354 kts | 109° |
| 2026-05-08 06:33 | 43.57745 | 7.94115 | 12277 ft | 351 kts | 109° |
| 2026-05-08 06:33 | 43.56929 | 7.97251 | 11828 ft | 348 kts | 109° |
| 2026-05-08 06:34 | 43.56098 | 8.00396 | 11372 ft | 345 kts | 112° |
| 2026-05-08 06:34 | 43.54866 | 8.03171 | 10912 ft | 343 kts | 132° |
| 2026-05-08 06:34 | 43.53015 | 8.05172 | 10460 ft | 338 kts | 153° |
| 2026-05-08 06:34 | 43.50805 | 8.06159 | 10006 ft | 330 kts | 174° |
| 2026-05-08 06:35 | 43.48558 | 8.06070 | 9556 ft | 322 kts | 193° |
| 2026-05-08 06:35 | 43.46509 | 8.05010 | 9106 ft | 314 kts | 212° |
| 2026-05-08 06:35 | 43.44797 | 8.03225 | 8663 ft | 308 kts | 222° |
| 2026-05-08 06:35 | 43.43221 | 8.01278 | 8215 ft | 304 kts | 223° |
| 2026-05-08 06:36 | 43.41671 | 7.99349 | 7766 ft | 301 kts | 223° |
| 2026-05-08 06:36 | 43.40206 | 7.97354 | 7313 ft | 297 kts | 233° |
| 2026-05-08 06:36 | 43.39196 | 7.94893 | 6859 ft | 293 kts | 250° |
| 2026-05-08 06:36 | 43.38778 | 7.92194 | 6409 ft | 290 kts | 267° |
| 2026-05-08 06:37 | 43.38951 | 7.89456 | 5958 ft | 288 kts | 283° |
| 2026-05-08 06:37 | 43.39669 | 7.86940 | 5513 ft | 286 kts | 297° |
| 2026-05-08 06:37 | 43.40633 | 7.84567 | 5063 ft | 284 kts | 299° |
| 2026-05-08 06:37 | 43.41625 | 7.82228 | 4613 ft | 282 kts | 299° |
| 2026-05-08 06:38 | 43.42607 | 7.79885 | 4176 ft | 280 kts | 299° |
| 2026-05-08 06:38 | 43.43541 | 7.77626 | 4000 ft | 267 kts | 300° |
| 2026-05-08 06:38 | 43.44403 | 7.75530 | 3997 ft | 256 kts | 300° |
| 2026-05-08 06:38 | 43.45282 | 7.73393 | 3996 ft | 255 kts | 300° |
| 2026-05-08 06:39 | 43.46142 | 7.71290 | 3995 ft | 255 kts | 300° |
| 2026-05-08 06:39 | 43.47009 | 7.69146 | 3995 ft | 255 kts | 298° |
| 2026-05-08 06:39 | 43.47512 | 7.66803 | 3986 ft | 258 kts | 273° |
| 2026-05-08 06:39 | 43.47160 | 7.64388 | 3992 ft | 262 kts | 247° |
| 2026-05-08 06:40 | 43.46091 | 7.62368 | 3997 ft | 266 kts | 226° |
| 2026-05-08 06:40 | 43.44687 | 7.60713 | 3998 ft | 267 kts | 221° |
| 2026-05-08 06:40 | 43.43253 | 7.59097 | 3997 ft | 266 kts | 223° |
| 2026-05-08 06:40 | 43.41871 | 7.57411 | 3996 ft | 266 kts | 225° |
| 2026-05-08 06:41 | 43.40559 | 7.55630 | 3996 ft | 265 kts | 229° |
| 2026-05-08 06:41 | 43.39320 | 7.53748 | 3996 ft | 265 kts | 232° |
| 2026-05-08 06:41 | 43.38161 | 7.51784 | 3996 ft | 264 kts | 235° |
| 2026-05-08 06:41 | 43.37095 | 7.49764 | 3996 ft | 264 kts | 238° |
| 2026-05-08 06:42 | 43.36095 | 7.47642 | 3996 ft | 263 kts | 241° |
| 2026-05-08 06:42 | 43.35185 | 7.45469 | 3996 ft | 263 kts | 244° |
| 2026-05-08 06:42 | 43.34356 | 7.43225 | 3996 ft | 262 kts | 247° |
| 2026-05-08 06:42 | 43.33622 | 7.40953 | 3996 ft | 262 kts | 250° |
| 2026-05-08 06:43 | 43.32969 | 7.38615 | 3996 ft | 261 kts | 253° |
| 2026-05-08 06:43 | 43.32408 | 7.36249 | 3996 ft | 261 kts | 256° |
| 2026-05-08 06:43 | 43.31936 | 7.33837 | 3996 ft | 261 kts | 258° |
| 2026-05-08 06:43 | 43.31561 | 7.31433 | 3996 ft | 260 kts | 261° |
| 2026-05-08 06:44 | 43.31273 | 7.28981 | 3997 ft | 260 kts | 264° |
| 2026-05-08 06:44 | 43.31076 | 7.26512 | 3997 ft | 260 kts | 267° |
| 2026-05-08 06:44 | 43.30977 | 7.24276 | 3998 ft | 259 kts | 269° |
| 2026-05-08 06:44 | 43.30955 | 7.21863 | 3999 ft | 259 kts | 272° |
| 2026-05-08 06:45 | 43.31021 | 7.19411 | 4000 ft | 259 kts | 275° |
| 2026-05-08 06:45 | 43.31181 | 7.16934 | 4001 ft | 259 kts | 278° |
| 2026-05-08 06:45 | 43.31432 | 7.14478 | 4003 ft | 258 kts | 281° |
| 2026-05-08 06:45 | 43.31766 | 7.12096 | 4001 ft | 250 kts | 284° |
| 2026-05-08 06:46 | 43.32163 | 7.09849 | 4003 ft | 233 kts | 287° |
| 2026-05-08 06:46 | 43.32604 | 7.07783 | 4003 ft | 218 kts | 290° |
| 2026-05-08 06:46 | 43.33075 | 7.05880 | 4001 ft | 204 kts | 293° |
| 2026-05-08 06:46 | 43.33566 | 7.04132 | 4003 ft | 193 kts | 295° |
| 2026-05-08 06:47 | 43.34082 | 7.02501 | 4058 ft | 176 kts | 297° |
| 2026-05-08 06:47 | 43.34581 | 7.01054 | 4037 ft | 159 kts | 299° |
| 2026-05-08 06:47 | 43.35058 | 6.99771 | 4002 ft | 141 kts | 301° |
| 2026-05-08 06:47 | 43.35509 | 6.98635 | 3995 ft | 134 kts | 304° |
| 2026-05-08 06:48 | 43.35987 | 6.97521 | 4014 ft | 133 kts | 304° |
| 2026-05-08 06:48 | 43.36475 | 6.96444 | 4013 ft | 133 kts | 306° |
| 2026-05-08 06:48 | 43.36982 | 6.95385 | 4016 ft | 133 kts | 308° |
| 2026-05-08 06:48 | 43.37513 | 6.94337 | 4043 ft | 133 kts | 308° |
| 2026-05-08 06:49 | 43.38063 | 6.93321 | 4032 ft | 131 kts | 309° |
| 2026-05-08 06:49 | 43.38611 | 6.92339 | 4019 ft | 132 kts | 312° |
| 2026-05-08 06:49 | 43.39212 | 6.91378 | 4022 ft | 132 kts | 319° |
| 2026-05-08 06:49 | 43.39939 | 6.90623 | 4024 ft | 130 kts | 332° |
| 2026-05-08 06:50 | 43.40778 | 6.90161 | 4022 ft | 130 kts | 346° |
| 2026-05-08 06:50 | 43.41670 | 6.90029 | 4020 ft | 130 kts | 1° |
| 2026-05-08 06:50 | 43.42537 | 6.90228 | 4023 ft | 132 kts | 14° |
| 2026-05-08 06:50 | 43.43373 | 6.90769 | 4019 ft | 134 kts | 30° |
| 2026-05-08 06:51 | 43.44086 | 6.91587 | 4020 ft | 136 kts | 39° |
| 2026-05-08 06:51 | 43.44755 | 6.92464 | 4031 ft | 129 kts | 40° |
| 2026-05-08 06:51 | 43.45394 | 6.93311 | 4009 ft | 125 kts | 38° |
| 2026-05-08 06:51 | 43.46025 | 6.94122 | 4022 ft | 125 kts | 38° |
| 2026-05-08 06:52 | 43.46663 | 6.94948 | 4021 ft | 125 kts | 39° |
| 2026-05-08 06:52 | 43.47293 | 6.95774 | 4026 ft | 125 kts | 40° |
| 2026-05-08 06:52 | 43.47921 | 6.96609 | 4022 ft | 126 kts | 40° |
| 2026-05-08 06:52 | 43.48545 | 6.97449 | 4021 ft | 126 kts | 40° |
| 2026-05-08 06:53 | 43.49172 | 6.98303 | 4006 ft | 125 kts | 39° |
| 2026-05-08 06:53 | 43.49785 | 6.99142 | 4022 ft | 125 kts | 40° |
| 2026-05-08 06:53 | 43.50362 | 6.99936 | 4026 ft | 125 kts | 40° |
| 2026-05-08 06:53 | 43.50938 | 7.00734 | 3906 ft | 125 kts | 40° |
| 2026-05-08 06:54 | 43.51551 | 7.01584 | 3719 ft | 126 kts | 40° |
| 2026-05-08 06:54 | 43.52180 | 7.02456 | 3293 ft | 132 kts | 40° |
| 2026-05-08 06:54 | 43.52797 | 7.03317 | 3125 ft | 124 kts | 40° |
| 2026-05-08 06:54 | 43.53400 | 7.04155 | 3127 ft | 123 kts | 40° |
| 2026-05-08 06:55 | 43.54010 | 7.05001 | 3130 ft | 123 kts | 40° |
| 2026-05-08 06:55 | 43.54612 | 7.05835 | 3130 ft | 123 kts | 40° |
| 2026-05-08 06:55 | 43.55218 | 7.06675 | 3086 ft | 124 kts | 40° |
| 2026-05-08 06:55 | 43.55822 | 7.07511 | 2852 ft | 123 kts | 40° |
| 2026-05-08 06:56 | 43.56429 | 7.08350 | 2531 ft | 123 kts | 40° |
| 2026-05-08 06:56 | 43.57034 | 7.09185 | 2199 ft | 121 kts | 40° |
| 2026-05-08 06:56 | 43.57618 | 7.09992 | 2068 ft | 121 kts | 40° |
| 2026-05-08 06:56 | 43.58218 | 7.10819 | 1938 ft | 121 kts | 40° |
| 2026-05-08 06:57 | 43.58814 | 7.11641 | 1776 ft | 121 kts | 40° |
| 2026-05-08 06:57 | 43.59407 | 7.12460 | 1611 ft | 121 kts | 40° |
| 2026-05-08 06:57 | 43.60014 | 7.13295 | 1450 ft | 120 kts | 40° |
| 2026-05-08 06:57 | 43.60621 | 7.14131 | 1284 ft | 120 kts | 40° |
| 2026-05-08 06:58 | 43.61205 | 7.14938 | 1125 ft | 120 kts | 40° |
| 2026-05-08 06:58 | 43.61800 | 7.15757 | 965 ft | 120 kts | 40° |
| 2026-05-08 06:58 | 43.62387 | 7.16566 | 809 ft | 119 kts | 40° |
| 2026-05-08 06:58 | 43.62970 | 7.17369 | 652 ft | 119 kts | 40° |
| 2026-05-08 06:59 | 43.63554 | 7.18173 | 494 ft | 119 kts | 40° |
| 2026-05-08 06:59 | 43.64135 | 7.18975 | 336 ft | 118 kts | 40° |
| 2026-05-08 06:59 | 43.64705 | 7.19759 | 183 ft | 118 kts | 40° |
| 2026-05-08 06:59 | 43.65274 | 7.20544 | 22 ft | 112 kts | 40° |
| 2026-05-08 07:00 | 43.65762 | 7.21194 | 17 ft | 79 kts | 46° |
| 2026-05-08 07:00 | 43.66050 | 7.21602 | 21 ft | 23 kts | 47° |
| 2026-05-08 07:00 | 43.66164 | 7.21761 | 22 ft | 23 kts | 42° |
| 2026-05-08 07:00 | 43.66284 | 7.21914 | 20 ft | 22 kts | 36° |
| 2026-05-08 07:01 | 43.66401 | 7.22005 | 18 ft | 19 kts | 20° |
| 2026-05-08 07:01 | 43.66510 | 7.22052 | 19 ft | 14 kts | 360° |
| 2026-05-08 07:01 | 43.66591 | 7.21980 | 21 ft | 13 kts | 317° |
| 2026-05-08 07:01 | 43.66642 | 7.21880 | 24 ft | 12 kts | 272° |
| 2026-05-08 07:02 | 43.66597 | 7.21788 | 26 ft | 11 kts | 225° |
| 2026-05-08 07:02 | 43.66537 | 7.21708 | 28 ft | 12 kts | 223° |
| 2026-05-08 07:02 | 43.66477 | 7.21628 | 29 ft | 12 kts | 225° |
| 2026-05-08 07:02 | 43.66441 | 7.21553 | 30 ft | 7 kts | 278° |
| 2026-05-08 07:03 | 43.66467 | 7.21505 | 31 ft | 4 kts | 313° |
| 2026-05-08 07:03 | 43.66471 | 7.21500 | 32 ft | 0 kts | 314° |